createdAt,value
2022-09-02T00:01:14.163Z,100822.84
2022-09-02T00:03:43.223Z,100820.25
2022-09-02T00:06:11.654Z,100685.91
2022-09-02T00:08:39.409Z,100694.81
2022-09-02T00:11:08.427Z,100813.41
2022-09-02T00:13:36.524Z,100808.03
2022-09-02T00:16:04.717Z,100806.34
2022-09-02T00:18:32.459Z,100808.44
2022-09-02T00:21:01.670Z,100751.31
2022-09-02T00:23:29.403Z,100802.31
2022-09-02T00:25:57.102Z,100800.63
2022-09-02T00:28:24.806Z,100796.34
2022-09-02T00:30:52.830Z,100793.78
2022-09-02T00:33:20.691Z,100792.06
2022-09-02T00:35:48.581Z,100791.22
2022-09-02T00:38:17.760Z,100787.81
2022-09-02T00:40:46.484Z,100791.47
2022-09-02T00:43:14.863Z,100788.06
2022-09-02T00:45:42.606Z,100792.69
2022-09-02T00:48:10.319Z,100792.94
2022-09-02T00:50:38.039Z,100794.63
2022-09-02T00:53:07.058Z,100786.13
2022-09-02T00:55:37.447Z,100733.13
2022-09-02T00:58:09.598Z,100779.25
2022-09-02T01:00:39.870Z,100785.63
2022-09-02T01:03:08.445Z,100786.63
2022-09-02T01:05:40.678Z,100780.50
2022-09-02T01:08:11.834Z,100780.25
2022-09-02T01:10:41.014Z,100782.19
2022-09-02T01:13:10.104Z,100774.38
2022-09-02T01:15:39.126Z,100760.25
2022-09-02T01:18:08.192Z,100785.25
2022-09-02T01:20:35.995Z,100786.13
2022-09-02T01:23:05.033Z,100775.63
2022-09-02T01:25:34.215Z,100775.63
2022-09-02T01:28:02.346Z,100699.09
2022-09-02T01:30:30.469Z,100745.31
2022-09-02T01:32:58.155Z,100775.13
2022-09-02T01:35:26.167Z,100771.84
2022-09-02T01:37:56.094Z,100755.59
2022-09-02T01:40:25.700Z,100774.91
2022-09-02T01:42:55.320Z,100732.63
2022-09-02T01:45:23.259Z,100731.53
2022-09-02T01:47:51.012Z,100761.97
2022-09-02T01:50:18.741Z,100757.44
2022-09-02T01:52:46.474Z,100755.84
2022-09-02T01:55:14.260Z,100670.41
2022-09-02T01:57:43.325Z,100756.59
2022-09-02T02:00:13.040Z,100749.50
2022-09-02T02:02:40.970Z,100747.81
2022-09-02T02:05:11.078Z,100745.13
2022-09-02T02:07:38.771Z,100739.22
2022-09-02T02:10:08.042Z,100648.59
2022-09-02T02:12:35.802Z,100740.44
2022-09-02T02:15:05.034Z,100740.69
2022-09-02T02:17:32.725Z,100726.53
2022-09-02T02:20:00.982Z,100740.94
2022-09-02T02:22:29.197Z,100741.91
2022-09-02T02:24:56.966Z,100735.31
2022-09-02T02:27:24.663Z,100739.47
2022-09-02T02:29:52.407Z,100734.34
2022-09-02T02:32:23.650Z,100735.06
2022-09-02T02:34:51.360Z,100734.34
2022-09-02T02:37:23.383Z,100730.69
2022-09-02T02:39:53.181Z,100732.63
2022-09-02T02:42:21.059Z,100714.56
2022-09-02T02:44:48.790Z,100735.78
2022-09-02T02:47:16.478Z,100735.66
2022-09-02T02:49:45.575Z,100740.31
2022-09-02T02:52:13.337Z,100733.59
2022-09-02T02:54:41.203Z,100667.94
2022-09-02T02:57:09.740Z,100668.69
2022-09-02T02:59:37.925Z,100670.63
2022-09-02T03:02:06.124Z,100733.72
2022-09-02T03:04:34.027Z,100733.84
2022-09-02T03:07:03.356Z,100735.81
2022-09-02T03:09:31.938Z,100734.06
2022-09-02T03:11:59.647Z,100727.25
2022-09-02T03:14:27.376Z,100731.75
2022-09-02T03:16:55.067Z,100729.19
2022-09-02T03:19:22.799Z,100729.81
2022-09-02T03:21:50.512Z,100726.50
2022-09-02T03:24:19.907Z,100730.91
2022-09-02T03:26:47.608Z,100728.47
2022-09-02T03:29:15.307Z,100655.53
2022-09-02T03:31:43.045Z,100727.72
2022-09-02T03:34:12.042Z,100731.50
2022-09-02T03:36:41.153Z,100726.28
2022-09-02T03:39:09.866Z,100682.03
2022-09-02T03:41:41.144Z,100720.16
2022-09-02T03:44:09.139Z,100657.16
2022-09-02T03:46:36.979Z,100712.47
2022-09-02T03:49:04.894Z,100641.66
2022-09-02T03:51:32.763Z,100723.09
2022-09-02T03:54:02.687Z,100715.03
2022-09-02T03:56:30.446Z,100717.09
2022-09-02T03:58:59.506Z,100723.31
2022-09-02T04:01:27.845Z,100720.63
2022-09-02T04:03:56.720Z,100716.25
2022-09-02T04:06:25.100Z,100717.94
2022-09-02T04:08:54.026Z,100715.75
2022-09-02T04:11:23.084Z,100588.34
2022-09-02T04:13:51.374Z,100714.16
2022-09-02T04:16:21.655Z,100711.59
2022-09-02T04:18:49.582Z,100712.78
2022-09-02T04:21:17.296Z,100710.97
2022-09-02T04:23:45.016Z,100670.16
2022-09-02T04:26:14.191Z,100706.69
2022-09-02T04:28:42.188Z,100706.78
2022-09-02T04:31:11.257Z,100713.00
2022-09-02T04:33:40.440Z,100655.38
2022-09-02T04:36:08.985Z,100680.78
2022-09-02T04:38:36.806Z,100711.03
2022-09-02T04:41:07.900Z,100645.63
2022-09-02T04:43:35.728Z,100702.75
2022-09-02T04:46:05.494Z,100647.56
2022-09-02T04:48:33.594Z,100700.28
2022-09-02T04:51:06.438Z,100703.84
2022-09-02T04:53:34.288Z,100704.19
2022-09-02T04:56:04.705Z,100706.00
2022-09-02T04:58:32.620Z,100705.06
2022-09-02T05:01:00.726Z,100688.81
2022-09-02T05:03:30.001Z,100704.31
2022-09-02T05:06:01.450Z,100703.31
2022-09-02T05:08:30.476Z,100707.97
2022-09-02T05:10:58.208Z,100696.75
2022-09-02T05:13:26.017Z,100707.22
2022-09-02T05:15:54.795Z,100706.38
2022-09-02T05:18:22.608Z,100713.44
2022-09-02T05:20:50.318Z,100711.00
2022-09-02T05:23:18.126Z,100696.69
2022-09-02T05:25:47.224Z,100700.16
2022-09-02T05:28:14.980Z,100700.28
2022-09-02T05:30:42.942Z,100619.84
2022-09-02T05:33:10.783Z,100692.25
2022-09-02T05:35:42.198Z,100686.13
2022-09-02T05:38:14.767Z,100689.69
2022-09-02T05:40:42.536Z,100674.41
2022-09-02T05:43:11.621Z,100687.34
2022-09-02T05:45:39.559Z,100681.88
2022-09-02T05:48:28.438Z,100685.50
2022-09-02T05:50:57.380Z,100684.66
2022-09-02T05:53:26.939Z,100677.47
2022-09-02T05:55:54.840Z,100683.22
2022-09-02T05:58:24.025Z,100684.69
2022-09-02T06:00:51.908Z,100680.06
2022-09-02T06:03:20.961Z,100679.31
2022-09-02T06:05:55.566Z,100681.75
2022-09-02T06:08:23.272Z,100674.81
2022-09-02T06:10:51.512Z,100670.91
2022-09-02T06:13:22.831Z,100686.19
2022-09-02T06:15:52.258Z,100686.88
2022-09-02T06:18:20.029Z,100587.59
2022-09-02T06:20:48.204Z,100652.09
2022-09-02T06:23:15.989Z,100686.56
2022-09-02T06:25:44.817Z,100636.91
2022-09-02T06:28:12.684Z,100604.16
2022-09-02T06:30:40.938Z,100679.97
2022-09-02T06:33:10.135Z,100681.63
2022-09-02T06:35:38.533Z,100669.66
2022-09-02T06:38:06.252Z,100670.88
2022-09-02T06:40:34.194Z,100637.78
2022-09-02T06:43:01.951Z,100608.31
2022-09-02T06:45:31.295Z,100683.44
2022-09-02T06:48:07.438Z,100677.84
2022-09-02T06:50:56.817Z,100676.53
2022-09-02T06:53:30.913Z,100678.47
2022-09-02T06:56:18.514Z,100668.59
2022-09-02T06:58:52.112Z,100664.69
2022-09-02T07:01:34.069Z,100578.91
2022-09-02T07:04:19.384Z,100661.13
2022-09-02T07:06:49.310Z,100623.22
2022-09-02T07:09:18.183Z,100665.53
2022-09-02T07:11:47.867Z,100657.09
2022-09-02T07:14:15.765Z,100660.28
2022-09-02T07:16:44.655Z,100593.47
2022-09-02T07:19:16.092Z,100666.00
2022-09-02T07:21:45.045Z,100653.06
2022-09-02T07:24:14.770Z,100655.38
2022-09-02T07:26:42.664Z,100657.94
2022-09-02T07:29:10.515Z,100659.13
2022-09-02T07:31:38.335Z,100657.06
2022-09-02T07:34:06.653Z,100610.22
2022-09-02T07:36:35.056Z,100649.50
2022-09-02T07:39:02.976Z,100621.09
2022-09-02T07:41:32.536Z,100654.22
2022-09-02T07:44:00.239Z,100655.66
2022-09-02T07:46:30.008Z,100656.28
2022-09-02T07:48:57.771Z,100656.03
2022-09-02T07:51:30.734Z,100660.28
2022-09-02T07:53:58.819Z,100651.47
2022-09-02T07:56:26.601Z,100654.38
2022-09-02T07:58:55.685Z,100648.50
2022-09-02T08:01:23.966Z,100652.75
2022-09-02T08:03:52.175Z,100554.78
2022-09-02T08:06:21.882Z,100585.34
2022-09-02T08:09:01.592Z,100637.84
2022-09-02T08:11:29.756Z,100645.63
2022-09-02T08:14:00.633Z,100643.41
2022-09-02T08:16:29.131Z,100643.63
2022-09-02T08:18:57.507Z,100640.56
2022-09-02T08:21:25.733Z,100643.13
2022-09-02T08:23:53.455Z,100647.63
2022-09-02T08:26:21.517Z,100632.50
2022-09-02T08:28:49.260Z,100638.03
2022-09-02T08:31:18.688Z,100635.94
2022-09-02T08:33:46.435Z,100629.72
2022-09-02T08:36:15.279Z,100584.88
2022-09-02T08:38:43.094Z,100588.00
2022-09-02T08:41:17.936Z,100627.81
2022-09-02T08:43:45.643Z,100627.16
2022-09-02T08:46:15.182Z,100593.06
2022-09-02T08:48:46.596Z,100619.91
2022-09-02T08:51:17.552Z,100626.03
2022-09-02T08:53:48.012Z,100622.94
2022-09-02T08:56:17.406Z,100623.78
2022-09-02T08:58:47.089Z,100596.97
2022-09-02T09:01:19.912Z,100617.00
2022-09-02T09:04:22.613Z,100552.56
2022-09-02T09:07:00.666Z,100595.88
2022-09-02T09:09:32.070Z,100564.34
2022-09-02T09:12:03.327Z,100602.78
2022-09-02T09:14:32.096Z,100487.41
2022-09-02T09:17:10.399Z,100601.25
2022-09-02T09:19:54.331Z,100562.03
2022-09-02T09:22:35.051Z,100587.38
2022-09-02T09:25:02.776Z,100602.28
2022-09-02T09:27:30.756Z,100595.91
2022-09-02T09:29:58.478Z,100595.34
2022-09-02T09:32:28.606Z,100587.72
2022-09-02T09:35:01.631Z,100573.38
2022-09-02T09:37:35.252Z,100587.31
2022-09-02T09:40:23.115Z,100586.31
2022-09-02T09:42:52.975Z,100576.28
2022-09-02T09:45:22.031Z,100540.06
2022-09-02T09:48:28.042Z,100574.72
2022-09-02T09:51:20.064Z,100572.16
2022-09-02T09:53:58.077Z,100570.19
2022-09-02T09:56:37.797Z,100568.78
2022-09-02T09:59:49.987Z,100574.44
2022-09-02T10:02:21.783Z,100571.59
2022-09-02T10:04:49.551Z,100574.16
2022-09-02T10:07:34.652Z,100570.47
2022-09-02T10:10:10.998Z,100564.94
2022-09-02T10:12:38.859Z,100556.72
2022-09-02T10:15:07.930Z,100550.50
2022-09-02T10:17:44.615Z,100550.09
2022-09-02T10:20:14.349Z,100552.06
2022-09-02T10:23:16.743Z,100553.19
2022-09-02T10:25:56.507Z,100548.00
2022-09-02T10:28:31.926Z,100550.94
2022-09-02T10:31:04.983Z,100549.53
2022-09-02T10:33:38.004Z,100550.63
2022-09-02T10:36:10.367Z,100492.66
2022-09-02T10:38:43.688Z,100467.00
2022-09-02T10:41:17.958Z,100532.50
2022-09-02T10:44:18.003Z,100527.84
2022-09-02T10:46:48.673Z,100520.84
2022-09-02T10:49:21.254Z,100515.47
2022-09-02T10:51:50.556Z,100512.63
2022-09-02T10:54:29.205Z,100515.19
2022-09-02T10:56:59.451Z,100518.59
2022-09-02T10:59:29.392Z,100517.59
2022-09-02T11:01:58.486Z,100521.06
2022-09-02T11:04:30.695Z,100513.53
2022-09-02T11:07:02.916Z,100514.94
2022-09-02T11:09:34.569Z,100519.47
2022-09-02T11:12:06.130Z,100480.34
2022-09-02T11:14:35.587Z,100517.34
2022-09-02T11:17:04.109Z,100523.19
2022-09-02T11:19:34.161Z,100525.00
2022-09-02T11:22:02.222Z,100511.97
2022-09-02T11:24:35.131Z,100510.28
2022-09-02T11:27:11.840Z,100502.06
2022-09-02T11:29:57.187Z,100502.19
2022-09-02T11:32:28.091Z,100508.69
2022-09-02T11:34:57.188Z,100505.13
2022-09-02T11:37:28.754Z,100447.59
2022-09-02T11:40:17.049Z,100509.81
2022-09-02T11:42:55.970Z,100458.63
2022-09-02T11:45:42.317Z,100494.22
2022-09-02T11:48:45.009Z,100507.81
2022-09-02T11:51:27.823Z,100489.25
2022-09-02T11:53:56.362Z,100499.47
2022-09-02T11:56:26.741Z,100496.78
2022-09-02T11:58:54.442Z,100490.66
2022-09-02T12:01:30.110Z,100491.25
2022-09-02T12:04:55.986Z,100471.81
2022-09-02T12:07:26.428Z,100483.31
2022-09-02T12:09:57.453Z,100481.44
2022-09-02T12:12:59.266Z,100492.22
2022-09-02T12:15:28.584Z,100483.31
2022-09-02T12:18:15.423Z,100486.97
2022-09-02T12:21:23.400Z,100478.22
2022-09-02T12:24:11.235Z,100467.56
2022-09-02T12:27:09.987Z,100463.75
2022-09-02T12:29:39.680Z,100387.94
2022-09-02T12:32:09.310Z,100460.03
2022-09-02T12:35:08.712Z,100457.22
2022-09-02T12:38:01.463Z,100454.50
2022-09-02T12:40:37.067Z,100453.41
2022-09-02T12:43:06.482Z,100452.41
2022-09-02T12:45:34.429Z,100447.72
2022-09-02T12:48:08.165Z,100449.28
2022-09-02T12:50:55.749Z,100438.06
2022-09-02T12:53:34.579Z,100417.38
2022-09-02T12:56:04.192Z,100431.41
2022-09-02T12:58:35.091Z,100387.06
2022-09-02T13:01:11.216Z,100431.56
2022-09-02T13:04:23.191Z,100425.31
2022-09-02T13:07:13.446Z,100395.84
2022-09-02T13:09:47.010Z,100426.47
2022-09-02T13:12:34.125Z,100425.88
2022-09-02T13:15:12.228Z,100417.94
2022-09-02T13:17:47.418Z,100411.16
2022-09-02T13:20:40.423Z,100411.13
2022-09-02T13:23:42.835Z,100409.16
2022-09-02T13:26:47.972Z,100332.34
2022-09-02T13:29:33.387Z,100395.69
2022-09-02T13:32:02.653Z,100346.09
2022-09-02T13:34:30.351Z,100405.44
2022-09-02T13:36:59.463Z,100399.91
2022-09-02T13:39:28.118Z,100401.47
2022-09-02T13:41:57.231Z,100395.81
2022-09-02T13:44:26.147Z,100392.97
2022-09-02T13:46:54.717Z,100389.25
2022-09-02T13:49:24.134Z,100390.34
2022-09-02T13:51:53.805Z,100346.75
2022-09-02T13:54:30.046Z,100383.56
2022-09-02T13:56:58.084Z,100387.63
2022-09-02T13:59:33.409Z,100387.34
2022-09-02T14:02:01.287Z,100387.03
2022-09-02T14:04:29.110Z,100385.06
2022-09-02T14:06:56.836Z,100376.97
2022-09-02T14:09:27.174Z,100388.25
2022-09-02T14:11:54.899Z,100373.91
2022-09-02T14:14:23.256Z,100376.47
2022-09-02T14:16:51.372Z,100371.38
2022-09-02T14:19:24.992Z,100329.56
2022-09-02T14:21:53.703Z,100363.53
2022-09-02T14:24:22.484Z,100363.75
2022-09-02T14:26:53.045Z,100360.59
2022-09-02T14:29:20.980Z,100303.97
2022-09-02T14:31:48.890Z,100358.56
2022-09-02T14:34:35.967Z,100350.31
2022-09-02T14:37:22.174Z,100349.47
2022-09-02T14:40:05.458Z,100347.63
2022-09-02T14:42:34.550Z,100355.63
2022-09-02T14:45:03.426Z,100347.63
2022-09-02T14:47:31.159Z,100350.78
2022-09-02T14:49:58.856Z,100345.91
2022-09-02T14:52:27.695Z,100355.25
2022-09-02T14:54:55.762Z,100319.94
2022-09-02T14:57:25.034Z,100300.13
2022-09-02T14:59:54.066Z,100354.94
2022-09-02T15:02:23.743Z,100353.19
2022-09-02T15:04:51.519Z,100346.78
2022-09-02T15:07:19.291Z,100347.66
2022-09-02T15:09:51.252Z,100350.03
2022-09-02T15:12:20.117Z,100276.19
2022-09-02T15:14:48.226Z,100334.91
2022-09-02T15:17:17.328Z,100334.91
2022-09-02T15:19:45.033Z,100337.13
2022-09-02T15:22:12.848Z,100337.69
2022-09-02T15:24:41.227Z,100331.25
2022-09-02T15:27:08.947Z,100336.31
2022-09-02T15:29:36.662Z,100327.97
2022-09-02T15:32:05.091Z,100328.44
2022-09-02T15:34:34.550Z,100322.50
2022-09-02T15:37:02.300Z,100319.72
2022-09-02T15:39:30.539Z,100325.56
2022-09-02T15:41:58.740Z,100325.19
2022-09-02T15:44:26.917Z,100269.91
2022-09-02T15:46:54.726Z,100316.97
2022-09-02T15:49:23.593Z,100307.22
2022-09-02T15:51:55.166Z,100310.06
2022-09-02T15:54:24.400Z,100307.50
2022-09-02T15:56:55.480Z,100312.75
2022-09-02T15:59:23.376Z,100303.13
2022-09-02T16:01:52.064Z,100302.81
2022-09-02T16:04:19.852Z,100304.81
2022-09-02T16:06:49.260Z,100300.44
2022-09-02T16:09:18.485Z,100297.72
2022-09-02T16:11:47.532Z,100293.56
2022-09-02T16:14:20.508Z,100293.56
2022-09-02T16:16:49.454Z,100278.44
2022-09-02T16:19:17.393Z,100285.09
2022-09-02T16:21:45.144Z,100281.06
2022-09-02T16:24:12.984Z,100290.41
2022-09-02T16:26:42.430Z,100273.97
2022-09-02T16:29:10.732Z,100279.84
2022-09-02T16:31:39.526Z,100285.09
2022-09-02T16:34:08.523Z,100208.69
2022-09-02T16:36:37.193Z,100280.06
2022-09-02T16:39:05.520Z,100278.91
2022-09-02T16:41:34.645Z,100277.72
2022-09-02T16:44:04.892Z,100274.50
2022-09-02T16:48:52.511Z,100276.13
2022-09-02T16:51:20.246Z,100264.81
2022-09-02T16:53:47.940Z,100272.38
2022-09-02T16:56:18.149Z,100265.41
2022-09-02T16:58:45.848Z,100264.00
2022-09-02T17:01:15.194Z,100234.66
2022-09-02T17:03:42.972Z,100255.69
2022-09-02T17:06:10.675Z,100263.09
2022-09-02T17:08:38.463Z,100259.22
2022-09-02T17:11:14.131Z,100259.78
2022-09-02T17:13:41.839Z,100253.00
2022-09-02T17:16:09.615Z,100255.00
2022-09-02T17:18:38.743Z,100252.44
2022-09-02T17:21:15.307Z,100257.00
2022-09-02T17:23:43.515Z,100257.38
2022-09-02T17:26:11.221Z,100262.78
2022-09-02T17:28:46.671Z,100255.53
2022-09-02T17:31:22.607Z,100263.81
2022-09-02T17:33:51.843Z,100266.09
2022-09-02T17:36:19.569Z,100264.72
2022-09-02T17:38:47.507Z,100270.59
2022-09-02T17:41:32.669Z,100265.66
2022-09-02T17:44:00.377Z,100268.81
2022-09-02T17:46:28.094Z,100275.53
2022-09-02T17:49:15.723Z,100268.88
2022-09-02T17:51:44.756Z,100273.44
2022-09-02T17:54:12.523Z,100271.53
2022-09-02T17:56:49.188Z,100267.81
2022-09-02T17:59:20.575Z,100268.97
2022-09-02T18:02:05.028Z,100273.81
2022-09-02T18:04:40.754Z,100248.66
2022-09-02T18:07:12.363Z,100249.41
2022-09-02T18:09:40.068Z,100278.28
2022-09-02T18:12:07.933Z,100283.81
2022-09-02T18:14:37.719Z,100286.81
2022-09-02T18:17:11.887Z,100274.44
2022-09-02T18:19:49.345Z,100259.63
2022-09-02T18:22:38.767Z,100280.28
2022-09-02T18:25:14.961Z,100289.53
2022-09-02T18:27:48.058Z,100296.09
2022-09-02T18:30:21.560Z,100299.91
2022-09-02T18:33:09.798Z,100305.47
2022-09-02T18:35:45.609Z,100304.22
2022-09-02T18:38:18.306Z,100305.09
2022-09-02T18:40:50.103Z,100310.63
2022-09-02T18:43:20.645Z,100308.06
2022-09-02T18:45:49.257Z,100309.19
2022-09-02T18:48:18.962Z,100308.38
2022-09-02T18:50:51.855Z,100303.56
2022-09-02T18:53:22.284Z,100324.13
2022-09-02T18:55:50.105Z,100323.41
2022-09-02T18:58:24.942Z,100322.03
2022-09-02T19:00:55.068Z,100323.56
2022-09-02T19:03:22.920Z,100333.81
2022-09-02T19:05:51.992Z,100328.56
2022-09-02T19:08:33.124Z,100322.47
2022-09-02T19:11:03.029Z,100245.09
2022-09-02T19:13:30.996Z,100336.25
2022-09-02T19:16:02.597Z,100344.47
2022-09-02T19:18:32.540Z,100337.41
2022-09-02T19:21:01.600Z,100340.09
2022-09-02T19:23:29.329Z,100348.47
2022-09-02T19:25:57.713Z,100343.06
2022-09-02T19:28:25.439Z,100330.50
2022-09-02T19:30:53.975Z,100339.81
2022-09-02T19:33:21.732Z,100272.69
2022-09-02T19:35:50.206Z,100341.94
2022-09-02T19:38:19.340Z,100349.19
2022-09-02T19:40:49.460Z,100254.03
2022-09-02T19:43:17.307Z,100344.09
2022-09-02T19:45:47.454Z,100351.31
2022-09-02T19:48:15.249Z,100346.94
2022-09-02T19:50:44.059Z,100353.28
2022-09-02T19:53:15.985Z,100313.06
2022-09-02T19:55:45.113Z,100352.59
2022-09-02T19:58:12.839Z,100349.47
2022-09-02T20:00:42.370Z,100358.28
2022-09-02T20:03:10.542Z,100357.56
2022-09-02T20:05:40.394Z,100360.69
2022-09-02T20:08:09.115Z,100365.94
2022-09-02T20:10:37.187Z,100365.94
2022-09-02T20:13:06.872Z,100364.38
2022-09-02T20:15:37.724Z,100278.84
2022-09-02T20:18:12.373Z,100370.75
2022-09-02T20:20:43.030Z,100370.75
2022-09-02T20:23:13.897Z,100370.06
2022-09-02T20:25:53.578Z,100371.88
2022-09-02T20:28:25.087Z,100356.31
2022-09-02T20:30:56.478Z,100289.75
2022-09-02T20:33:24.222Z,100376.84
2022-09-02T20:36:07.298Z,100306.75
2022-09-02T20:38:48.930Z,100382.22
2022-09-02T20:41:22.936Z,100378.72
2022-09-02T20:43:57.878Z,100379.69
2022-09-02T20:46:42.342Z,100318.50
2022-09-02T20:49:19.424Z,100379.97
2022-09-02T20:51:51.504Z,100376.59
2022-09-02T20:54:24.313Z,100291.59
2022-09-02T20:56:58.206Z,100380.53
2022-09-02T20:59:31.241Z,100380.81
2022-09-02T21:01:59.438Z,100390.03
2022-09-02T21:04:36.063Z,100384.66
2022-09-02T21:07:06.008Z,100309.69
2022-09-02T21:09:39.379Z,100346.84
2022-09-02T21:12:11.863Z,100388.66
2022-09-02T21:14:41.880Z,100316.94
2022-09-02T21:17:09.664Z,100382.09
2022-09-02T21:19:40.596Z,100379.41
2022-09-02T21:22:10.571Z,100380.28
2022-09-02T21:24:39.432Z,100300.47
2022-09-02T21:27:10.896Z,100375.31
2022-09-02T21:29:40.403Z,100310.69
2022-09-02T21:32:11.859Z,100370.94
2022-09-02T21:34:40.463Z,100282.78
2022-09-02T21:37:08.628Z,100372.91
2022-09-02T21:39:37.205Z,100372.03
2022-09-02T21:42:12.767Z,100372.19
2022-09-02T21:44:46.528Z,100375.03
2022-09-02T21:47:20.852Z,100367.50
2022-09-02T21:50:11.787Z,100371.78
2022-09-02T21:52:48.413Z,100290.59
2022-09-02T21:55:21.431Z,100378.28
2022-09-02T21:57:56.750Z,100376.59
2022-09-02T22:00:24.446Z,100375.03
2022-09-02T22:02:58.726Z,100356.44
2022-09-02T22:05:31.875Z,100372.88
2022-09-02T22:08:01.937Z,100365.78
2022-09-02T22:10:31.826Z,100368.75
2022-09-02T22:13:03.191Z,100317.88
2022-09-02T22:15:37.529Z,100339.28
2022-09-02T22:18:14.795Z,100382.19
2022-09-02T22:20:44.072Z,100372.28
2022-09-02T22:23:19.639Z,100348.34
2022-09-02T22:25:48.932Z,100371.72
2022-09-02T22:28:20.989Z,100361.09
2022-09-02T22:30:50.800Z,100366.75
2022-09-02T22:33:21.360Z,100366.06
2022-09-02T22:35:53.516Z,100325.53
2022-09-02T22:38:26.377Z,100362.94
2022-09-02T22:40:56.158Z,100345.38
2022-09-02T22:43:24.913Z,100366.88
2022-09-02T22:46:13.076Z,100365.19
2022-09-02T22:49:02.087Z,100357.41
2022-09-02T22:51:48.487Z,100286.16
2022-09-02T22:54:16.208Z,100362.06
2022-09-02T22:56:48.302Z,100358.41
2022-09-02T22:59:29.738Z,100363.06
2022-09-02T23:02:01.360Z,100290.66
2022-09-02T23:04:57.010Z,100347.06
2022-09-02T23:07:24.791Z,100352.59
2022-09-02T23:09:57.228Z,100353.31
2022-09-02T23:12:30.756Z,100329.22
2022-09-02T23:15:10.655Z,100286.44
2022-09-02T23:17:44.853Z,100315.34
2022-09-02T23:20:20.392Z,100351.88
2022-09-02T23:22:55.498Z,100339.41
2022-09-02T23:25:42.483Z,100338.56
2022-09-02T23:28:15.209Z,100331.91
2022-09-02T23:30:49.138Z,100256.94
2022-09-02T23:33:19.072Z,100306.81
2022-09-02T23:35:53.696Z,100308.66
2022-09-02T23:38:33.436Z,100332.91
2022-09-02T23:41:05.154Z,100330.34
2022-09-02T23:43:32.919Z,100327.81
2022-09-02T23:46:02.255Z,100328.50
2022-09-02T23:48:39.631Z,100327.94
2022-09-02T23:51:17.200Z,100263.16
2022-09-02T23:53:55.638Z,100262.75
2022-09-02T23:56:32.663Z,100309.69
2022-09-02T23:59:22.581Z,100296.94
